Arnold, North Carolina
Current Conditions -  °F | °C
As of 2:15 AM on Sunday 23 Nov 2014 (Local Time) from KEXX Reporting Station
Overcast Overcast  
Wind Chill: 38°   Ceiling: 5000
Heat Index: 38°   Visibility: 10mi
Dew Point: 30°   Wind: 0mph
Humidity: 72%   Direction: NA
Pressure: 30.28"   Gusts: NA
Location:  35.7974°N, 80.2541°W
Report Text: KEXX 230715Z AUTO 00000KT 10SM OVC050 04/M01 A3028 RMK AO2 T00361011
Loading
Personal Weather Stations






























Interactive Weather Map New forecast layout! Learn more

10-Day Weather Forecast

Advertisements
Track Severe Weather on mobile